sensor_id;sensor_type;location;lat;lon;timestamp;P1;durP1;ratioP1;P2;durP2;ratioP2
18286;SDS011;9269;50.838;12.094;2023-04-25T00:00:03;6.70;;;6.07;;
18286;SDS011;9269;50.838;12.094;2023-04-25T00:02:33;6.63;;;5.50;;
18286;SDS011;9269;50.838;12.094;2023-04-25T00:05:04;7.73;;;5.23;;
18286;SDS011;9269;50.838;12.094;2023-04-25T00:07:33;7.07;;;5.30;;
18286;SDS011;9269;50.838;12.094;2023-04-25T00:10:04;7.47;;;5.50;;
18286;SDS011;9269;50.838;12.094;2023-04-25T00:12:33;6.63;;;6.03;;
18286;SDS011;9269;50.838;12.094;2023-04-25T00:15:02;7.77;;;6.83;;
18286;SDS011;9269;50.838;12.094;2023-04-25T00:17:31;7.67;;;6.77;;
18286;SDS011;9269;50.838;12.094;2023-04-25T00:20:00;9.00;;;8.10;;
18286;SDS011;9269;50.838;12.094;2023-04-25T00:22:32;8.13;;;7.33;;
18286;SDS011;9269;50.838;12.094;2023-04-25T00:25:01;10.93;;;8.40;;
18286;SDS011;9269;50.838;12.094;2023-04-25T00:27:32;10.80;;;9.07;;
18286;SDS011;9269;50.838;12.094;2023-04-25T00:30:00;11.00;;;9.90;;
18286;SDS011;9269;50.838;12.094;2023-04-25T00:32:29;11.13;;;9.63;;
18286;SDS011;9269;50.838;12.094;2023-04-25T00:34:57;11.90;;;9.33;;
18286;SDS011;9269;50.838;12.094;2023-04-25T00:37:26;11.87;;;9.13;;
18286;SDS011;9269;50.838;12.094;2023-04-25T00:39:54;10.63;;;8.70;;
18286;SDS011;9269;50.838;12.094;2023-04-25T00:42:24;9.33;;;7.67;;
18286;SDS011;9269;50.838;12.094;2023-04-25T00:44:53;9.77;;;7.70;;
18286;SDS011;9269;50.838;12.094;2023-04-25T00:47:22;8.20;;;6.87;;
18286;SDS011;9269;50.838;12.094;2023-04-25T00:49:51;6.80;;;6.17;;
18286;SDS011;9269;50.838;12.094;2023-04-25T00:52:20;6.57;;;5.50;;
18286;SDS011;9269;50.838;12.094;2023-04-25T00:54:48;6.43;;;5.83;;
18286;SDS011;9269;50.838;12.094;2023-04-25T00:57:17;8.20;;;5.70;;
18286;SDS011;9269;50.838;12.094;2023-04-25T00:59:47;6.67;;;5.53;;
18286;SDS011;9269;50.838;12.094;2023-04-25T01:02:19;6.07;;;5.47;;
18286;SDS011;9269;50.838;12.094;2023-04-25T01:04:48;6.73;;;5.40;;
18286;SDS011;9269;50.838;12.094;2023-04-25T01:07:17;6.17;;;5.20;;
18286;SDS011;9269;50.838;12.094;2023-04-25T01:09:45;6.17;;;5.30;;
18286;SDS011;9269;50.838;12.094;2023-04-25T01:12:14;5.73;;;5.17;;
18286;SDS011;9269;50.838;12.094;2023-04-25T01:14:42;6.83;;;5.63;;
18286;SDS011;9269;50.838;12.094;2023-04-25T01:17:18;6.97;;;5.37;;
18286;SDS011;9269;50.838;12.094;2023-04-25T01:19:48;9.00;;;5.50;;
18286;SDS011;9269;50.838;12.094;2023-04-25T01:22:18;5.97;;;5.30;;
18286;SDS011;9269;50.838;12.094;2023-04-25T01:25:03;6.53;;;5.87;;
18286;SDS011;9269;50.838;12.094;2023-04-25T01:27:32;5.93;;;5.33;;
18286;SDS011;9269;50.838;12.094;2023-04-25T01:30:01;6.10;;;5.50;;
18286;SDS011;9269;50.838;12.094;2023-04-25T01:32:31;6.13;;;5.63;;
18286;SDS011;9269;50.838;12.094;2023-04-25T01:35:05;6.53;;;5.27;;
18286;SDS011;9269;50.838;12.094;2023-04-25T01:37:37;6.70;;;5.20;;
18286;SDS011;9269;50.838;12.094;2023-04-25T01:40:07;7.17;;;5.13;;
18286;SDS011;9269;50.838;12.094;2023-04-25T01:42:37;5.67;;;5.13;;
18286;SDS011;9269;50.838;12.094;2023-04-25T01:45:08;6.93;;;6.10;;
18286;SDS011;9269;50.838;12.094;2023-04-25T01:47:57;5.63;;;5.07;;
18286;SDS011;9269;50.838;12.094;2023-04-25T01:50:26;6.00;;;5.40;;
18286;SDS011;9269;50.838;12.094;2023-04-25T01:52:57;6.23;;;5.63;;
18286;SDS011;9269;50.838;12.094;2023-04-25T01:55:25;7.40;;;5.77;;
18286;SDS011;9269;50.838;12.094;2023-04-25T01:57:54;6.20;;;5.60;;
18286;SDS011;9269;50.838;12.094;2023-04-25T02:00:22;7.33;;;5.70;;
18286;SDS011;9269;50.838;12.094;2023-04-25T02:02:52;5.90;;;5.40;;
18286;SDS011;9269;50.838;12.094;2023-04-25T02:05:22;5.73;;;5.20;;
18286;SDS011;9269;50.838;12.094;2023-04-25T02:07:50;6.40;;;5.50;;
18286;SDS011;9269;50.838;12.094;2023-04-25T02:10:21;8.70;;;5.67;;
18286;SDS011;9269;50.838;12.094;2023-04-25T02:12:49;6.67;;;5.17;;
18286;SDS011;9269;50.838;12.094;2023-04-25T02:15:18;6.33;;;5.73;;
18286;SDS011;9269;50.838;12.094;2023-04-25T02:17:46;5.97;;;5.40;;
18286;SDS011;9269;50.838;12.094;2023-04-25T02:20:15;6.63;;;5.43;;
18286;SDS011;9269;50.838;12.094;2023-04-25T02:22:44;7.10;;;5.53;;
18286;SDS011;9269;50.838;12.094;2023-04-25T02:25:12;6.30;;;5.70;;
18286;SDS011;9269;50.838;12.094;2023-04-25T02:27:43;7.17;;;5.87;;
18286;SDS011;9269;50.838;12.094;2023-04-25T02:30:12;7.90;;;5.23;;
18286;SDS011;9269;50.838;12.094;2023-04-25T02:32:46;5.97;;;5.47;;
18286;SDS011;9269;50.838;12.094;2023-04-25T02:35:14;5.93;;;5.33;;
18286;SDS011;9269;50.838;12.094;2023-04-25T02:37:43;6.47;;;5.60;;
18286;SDS011;9269;50.838;12.094;2023-04-25T02:40:11;9.07;;;6.17;;
18286;SDS011;9269;50.838;12.094;2023-04-25T02:42:40;8.83;;;5.50;;
18286;SDS011;9269;50.838;12.094;2023-04-25T02:45:10;6.57;;;5.53;;
18286;SDS011;9269;50.838;12.094;2023-04-25T02:47:38;7.07;;;5.57;;
18286;SDS011;9269;50.838;12.094;2023-04-25T02:50:22;6.63;;;5.37;;
18286;SDS011;9269;50.838;12.094;2023-04-25T02:52:51;6.03;;;5.00;;
18286;SDS011;9269;50.838;12.094;2023-04-25T02:55:19;5.67;;;5.03;;
18286;SDS011;9269;50.838;12.094;2023-04-25T02:57:50;6.33;;;5.07;;
18286;SDS011;9269;50.838;12.094;2023-04-25T03:00:20;7.03;;;5.40;;
18286;SDS011;9269;50.838;12.094;2023-04-25T03:02:50;5.53;;;5.00;;
18286;SDS011;9269;50.838;12.094;2023-04-25T03:05:18;6.27;;;5.23;;
18286;SDS011;9269;50.838;12.094;2023-04-25T03:07:47;5.60;;;4.97;;
18286;SDS011;9269;50.838;12.094;2023-04-25T03:10:15;5.73;;;5.10;;
18286;SDS011;9269;50.838;12.094;2023-04-25T03:12:44;6.17;;;5.57;;
18286;SDS011;9269;50.838;12.094;2023-04-25T03:15:12;6.53;;;5.37;;
18286;SDS011;9269;50.838;12.094;2023-04-25T03:17:42;7.50;;;6.10;;
18286;SDS011;9269;50.838;12.094;2023-04-25T03:20:12;6.63;;;6.03;;
18286;SDS011;9269;50.838;12.094;2023-04-25T03:22:42;6.60;;;5.80;;
18286;SDS011;9269;50.838;12.094;2023-04-25T03:25:11;6.07;;;5.47;;
18286;SDS011;9269;50.838;12.094;2023-04-25T03:27:39;5.83;;;5.27;;
18286;SDS011;9269;50.838;12.094;2023-04-25T03:30:08;6.20;;;5.60;;
18286;SDS011;9269;50.838;12.094;2023-04-25T03:32:38;5.83;;;5.10;;
18286;SDS011;9269;50.838;12.094;2023-04-25T03:35:09;5.63;;;5.03;;
18286;SDS011;9269;50.838;12.094;2023-04-25T03:37:37;5.57;;;4.90;;
18286;SDS011;9269;50.838;12.094;2023-04-25T03:40:07;6.50;;;5.43;;
18286;SDS011;9269;50.838;12.094;2023-04-25T03:42:36;6.83;;;4.73;;
18286;SDS011;9269;50.838;12.094;2023-04-25T03:45:06;6.17;;;5.37;;
18286;SDS011;9269;50.838;12.094;2023-04-25T03:47:38;5.43;;;4.90;;
18286;SDS011;9269;50.838;12.094;2023-04-25T03:50:06;6.07;;;5.47;;
18286;SDS011;9269;50.838;12.094;2023-04-25T03:52:37;5.63;;;5.13;;
18286;SDS011;9269;50.838;12.094;2023-04-25T03:55:05;5.43;;;4.93;;
18286;SDS011;9269;50.838;12.094;2023-04-25T03:57:34;4.90;;;4.47;;
18286;SDS011;9269;50.838;12.094;2023-04-25T04:00:02;5.43;;;4.93;;
18286;SDS011;9269;50.838;12.094;2023-04-25T04:02:33;6.77;;;5.87;;
18286;SDS011;9269;50.838;12.094;2023-04-25T04:05:03;6.60;;;5.90;;
18286;SDS011;9269;50.838;12.094;2023-04-25T04:07:33;7.50;;;5.77;;
18286;SDS011;9269;50.838;12.094;2023-04-25T04:10:07;6.90;;;6.20;;
18286;SDS011;9269;50.838;12.094;2023-04-25T04:12:35;6.03;;;5.47;;
18286;SDS011;9269;50.838;12.094;2023-04-25T04:15:04;6.53;;;5.50;;
18286;SDS011;9269;50.838;12.094;2023-04-25T04:17:34;5.90;;;5.27;;
18286;SDS011;9269;50.838;12.094;2023-04-25T04:20:02;6.03;;;5.33;;
18286;SDS011;9269;50.838;12.094;2023-04-25T04:22:35;6.03;;;4.83;;
18286;SDS011;9269;50.838;12.094;2023-04-25T04:25:04;5.63;;;5.03;;
18286;SDS011;9269;50.838;12.094;2023-04-25T04:27:33;6.07;;;4.83;;
18286;SDS011;9269;50.838;12.094;2023-04-25T04:30:02;5.50;;;5.00;;
18286;SDS011;9269;50.838;12.094;2023-04-25T04:32:31;6.87;;;5.57;;
18286;SDS011;9269;50.838;12.094;2023-04-25T04:35:01;5.23;;;4.83;;
18286;SDS011;9269;50.838;12.094;2023-04-25T04:37:31;6.33;;;5.20;;
18286;SDS011;9269;50.838;12.094;2023-04-25T04:40:00;5.60;;;5.00;;
18286;SDS011;9269;50.838;12.094;2023-04-25T04:42:33;6.20;;;4.67;;
18286;SDS011;9269;50.838;12.094;2023-04-25T04:45:03;6.33;;;5.20;;
18286;SDS011;9269;50.838;12.094;2023-04-25T04:47:31;5.87;;;5.37;;
18286;SDS011;9269;50.838;12.094;2023-04-25T04:50:00;5.00;;;4.57;;
18286;SDS011;9269;50.838;12.094;2023-04-25T04:52:29;5.53;;;5.03;;
18286;SDS011;9269;50.838;12.094;2023-04-25T04:54:57;6.97;;;4.73;;
18286;SDS011;9269;50.838;12.094;2023-04-25T04:57:27;6.03;;;4.77;;
18286;SDS011;9269;50.838;12.094;2023-04-25T04:59:56;5.47;;;4.93;;
18286;SDS011;9269;50.838;12.094;2023-04-25T05:02:24;5.07;;;4.67;;
18286;SDS011;9269;50.838;12.094;2023-04-25T05:04:53;7.13;;;5.00;;
18286;SDS011;9269;50.838;12.094;2023-04-25T05:07:21;5.20;;;4.70;;
18286;SDS011;9269;50.838;12.094;2023-04-25T05:09:49;5.07;;;4.57;;
18286;SDS011;9269;50.838;12.094;2023-04-25T05:12:18;5.57;;;4.53;;
18286;SDS011;9269;50.838;12.094;2023-04-25T05:14:47;5.63;;;5.00;;
18286;SDS011;9269;50.838;12.094;2023-04-25T05:17:16;5.57;;;5.00;;
18286;SDS011;9269;50.838;12.094;2023-04-25T05:19:45;5.43;;;4.87;;
18286;SDS011;9269;50.838;12.094;2023-04-25T05:22:13;5.63;;;4.60;;
18286;SDS011;9269;50.838;12.094;2023-04-25T05:24:41;7.87;;;5.10;;
18286;SDS011;9269;50.838;12.094;2023-04-25T05:27:10;6.60;;;4.43;;
18286;SDS011;9269;50.838;12.094;2023-04-25T05:29:38;5.53;;;5.00;;
18286;SDS011;9269;50.838;12.094;2023-04-25T05:32:08;7.40;;;5.40;;
18286;SDS011;9269;50.838;12.094;2023-04-25T05:34:37;5.00;;;4.60;;
18286;SDS011;9269;50.838;12.094;2023-04-25T05:37:05;6.37;;;4.90;;
18286;SDS011;9269;50.838;12.094;2023-04-25T05:39:34;8.27;;;5.80;;
18286;SDS011;9269;50.838;12.094;2023-04-25T05:42:02;5.30;;;4.80;;
18286;SDS011;9269;50.838;12.094;2023-04-25T05:44:31;5.47;;;4.70;;
18286;SDS011;9269;50.838;12.094;2023-04-25T05:46:59;5.43;;;4.90;;
18286;SDS011;9269;50.838;12.094;2023-04-25T05:49:29;6.73;;;5.10;;
18286;SDS011;9269;50.838;12.094;2023-04-25T05:51:58;5.40;;;4.80;;
18286;SDS011;9269;50.838;12.094;2023-04-25T05:54:26;4.97;;;4.57;;
18286;SDS011;9269;50.838;12.094;2023-04-25T05:56:55;6.23;;;4.60;;
18286;SDS011;9269;50.838;12.094;2023-04-25T05:59:24;7.90;;;5.07;;
18286;SDS011;9269;50.838;12.094;2023-04-25T06:01:53;5.80;;;4.50;;
18286;SDS011;9269;50.838;12.094;2023-04-25T06:04:22;5.77;;;5.17;;
18286;SDS011;9269;50.838;12.094;2023-04-25T06:06:52;6.97;;;4.87;;
18286;SDS011;9269;50.838;12.094;2023-04-25T06:09:20;5.10;;;4.57;;
18286;SDS011;9269;50.838;12.094;2023-04-25T06:11:49;5.90;;;4.60;;
18286;SDS011;9269;50.838;12.094;2023-04-25T06:14:19;5.43;;;4.30;;
18286;SDS011;9269;50.838;12.094;2023-04-25T06:16:47;5.07;;;4.53;;
18286;SDS011;9269;50.838;12.094;2023-04-25T06:19:15;5.13;;;4.63;;
18286;SDS011;9269;50.838;12.094;2023-04-25T06:21:44;5.40;;;4.20;;
18286;SDS011;9269;50.838;12.094;2023-04-25T06:24:14;5.93;;;4.40;;
18286;SDS011;9269;50.838;12.094;2023-04-25T06:26:42;5.60;;;3.87;;
18286;SDS011;9269;50.838;12.094;2023-04-25T06:29:11;7.13;;;4.90;;
18286;SDS011;9269;50.838;12.094;2023-04-25T06:31:39;7.90;;;4.70;;
18286;SDS011;9269;50.838;12.094;2023-04-25T06:34:07;7.50;;;4.67;;
18286;SDS011;9269;50.838;12.094;2023-04-25T06:36:35;5.70;;;4.80;;
18286;SDS011;9269;50.838;12.094;2023-04-25T06:39:05;6.00;;;5.03;;
18286;SDS011;9269;50.838;12.094;2023-04-25T06:41:34;5.27;;;4.63;;
18286;SDS011;9269;50.838;12.094;2023-04-25T06:44:03;7.27;;;5.03;;
18286;SDS011;9269;50.838;12.094;2023-04-25T06:46:31;5.57;;;5.03;;
18286;SDS011;9269;50.838;12.094;2023-04-25T06:49:00;6.10;;;4.63;;
18286;SDS011;9269;50.838;12.094;2023-04-25T06:51:29;6.40;;;4.70;;
18286;SDS011;9269;50.838;12.094;2023-04-25T06:53:58;7.70;;;4.50;;
18286;SDS011;9269;50.838;12.094;2023-04-25T06:56:27;6.33;;;4.60;;
18286;SDS011;9269;50.838;12.094;2023-04-25T06:58:59;4.57;;;4.17;;
18286;SDS011;9269;50.838;12.094;2023-04-25T07:01:28;5.00;;;4.03;;
18286;SDS011;9269;50.838;12.094;2023-04-25T07:03:57;5.47;;;4.20;;
18286;SDS011;9269;50.838;12.094;2023-04-25T07:06:25;5.10;;;3.63;;
18286;SDS011;9269;50.838;12.094;2023-04-25T07:08:54;6.30;;;4.17;;
18286;SDS011;9269;50.838;12.094;2023-04-25T07:11:23;4.33;;;3.83;;
18286;SDS011;9269;50.838;12.094;2023-04-25T07:13:51;6.93;;;4.70;;
18286;SDS011;9269;50.838;12.094;2023-04-25T07:16:21;5.77;;;4.50;;
18286;SDS011;9269;50.838;12.094;2023-04-25T07:18:51;5.53;;;4.67;;
18286;SDS011;9269;50.838;12.094;2023-04-25T07:21:19;7.07;;;5.00;;
18286;SDS011;9269;50.838;12.094;2023-04-25T07:23:48;7.17;;;4.73;;
18286;SDS011;9269;50.838;12.094;2023-04-25T07:26:16;5.47;;;4.40;;
18286;SDS011;9269;50.838;12.094;2023-04-25T07:28:45;5.40;;;4.27;;
18286;SDS011;9269;50.838;12.094;2023-04-25T07:31:17;5.27;;;4.50;;
18286;SDS011;9269;50.838;12.094;2023-04-25T07:33:47;5.90;;;4.70;;
18286;SDS011;9269;50.838;12.094;2023-04-25T07:36:15;7.60;;;4.67;;
18286;SDS011;9269;50.838;12.094;2023-04-25T07:38:44;5.13;;;4.63;;
18286;SDS011;9269;50.838;12.094;2023-04-25T07:41:12;4.77;;;3.53;;
18286;SDS011;9269;50.838;12.094;2023-04-25T07:43:41;4.37;;;3.63;;
18286;SDS011;9269;50.838;12.094;2023-04-25T07:46:09;4.20;;;3.80;;
18286;SDS011;9269;50.838;12.094;2023-04-25T07:48:38;4.97;;;3.63;;
18286;SDS011;9269;50.838;12.094;2023-04-25T07:51:09;4.40;;;3.80;;
18286;SDS011;9269;50.838;12.094;2023-04-25T07:53:37;5.27;;;4.33;;
18286;SDS011;9269;50.838;12.094;2023-04-25T07:56:06;4.93;;;4.00;;
18286;SDS011;9269;50.838;12.094;2023-04-25T07:58:36;4.47;;;3.70;;
18286;SDS011;9269;50.838;12.094;2023-04-25T08:01:04;4.00;;;3.53;;
18286;SDS011;9269;50.838;12.094;2023-04-25T08:03:33;5.77;;;4.07;;
18286;SDS011;9269;50.838;12.094;2023-04-25T08:06:02;4.90;;;4.10;;
18286;SDS011;9269;50.838;12.094;2023-04-25T08:08:35;6.53;;;4.10;;
18286;SDS011;9269;50.838;12.094;2023-04-25T08:11:04;3.90;;;3.50;;
18286;SDS011;9269;50.838;12.094;2023-04-25T08:13:32;5.00;;;3.50;;
18286;SDS011;9269;50.838;12.094;2023-04-25T08:16:00;3.90;;;3.50;;
18286;SDS011;9269;50.838;12.094;2023-04-25T08:18:29;3.97;;;3.63;;
18286;SDS011;9269;50.838;12.094;2023-04-25T08:20:57;6.20;;;3.93;;
18286;SDS011;9269;50.838;12.094;2023-04-25T08:23:27;4.73;;;3.67;;
18286;SDS011;9269;50.838;12.094;2023-04-25T08:25:57;3.80;;;3.50;;
18286;SDS011;9269;50.838;12.094;2023-04-25T08:28:26;3.83;;;3.23;;
18286;SDS011;9269;50.838;12.094;2023-04-25T08:30:55;3.80;;;3.50;;
18286;SDS011;9269;50.838;12.094;2023-04-25T08:33:24;4.43;;;3.93;;
18286;SDS011;9269;50.838;12.094;2023-04-25T08:35:52;4.37;;;3.93;;
18286;SDS011;9269;50.838;12.094;2023-04-25T08:38:21;4.33;;;3.90;;
18286;SDS011;9269;50.838;12.094;2023-04-25T08:40:50;4.90;;;3.83;;
18286;SDS011;9269;50.838;12.094;2023-04-25T08:43:21;5.57;;;4.03;;
18286;SDS011;9269;50.838;12.094;2023-04-25T08:45:51;4.93;;;3.40;;
18286;SDS011;9269;50.838;12.094;2023-04-25T08:48:22;4.20;;;3.90;;
18286;SDS011;9269;50.838;12.094;2023-04-25T08:50:55;4.67;;;3.80;;
18286;SDS011;9269;50.838;12.094;2023-04-25T08:53:25;4.33;;;3.93;;
18286;SDS011;9269;50.838;12.094;2023-04-25T08:55:55;4.60;;;4.20;;
18286;SDS011;9269;50.838;12.094;2023-04-25T08:58:26;4.27;;;3.87;;
18286;SDS011;9269;50.838;12.094;2023-04-25T09:00:55;7.03;;;4.37;;
18286;SDS011;9269;50.838;12.094;2023-04-25T09:03:23;5.47;;;4.30;;
18286;SDS011;9269;50.838;12.094;2023-04-25T09:05:52;4.83;;;4.37;;
18286;SDS011;9269;50.838;12.094;2023-04-25T09:08:22;5.10;;;4.57;;
18286;SDS011;9269;50.838;12.094;2023-04-25T09:10:51;4.77;;;4.30;;
18286;SDS011;9269;50.838;12.094;2023-04-25T09:13:24;4.50;;;4.10;;
18286;SDS011;9269;50.838;12.094;2023-04-25T09:15:55;5.50;;;4.20;;
18286;SDS011;9269;50.838;12.094;2023-04-25T09:18:25;4.70;;;4.17;;
18286;SDS011;9269;50.838;12.094;2023-04-25T09:20:57;4.30;;;3.90;;
18286;SDS011;9269;50.838;12.094;2023-04-25T09:23:40;4.47;;;3.80;;
18286;SDS011;9269;50.838;12.094;2023-04-25T09:26:13;5.90;;;4.57;;
18286;SDS011;9269;50.838;12.094;2023-04-25T09:28:44;4.20;;;3.73;;
18286;SDS011;9269;50.838;12.094;2023-04-25T09:31:20;4.83;;;4.33;;
18286;SDS011;9269;50.838;12.094;2023-04-25T09:33:52;5.07;;;4.40;;
18286;SDS011;9269;50.838;12.094;2023-04-25T09:36:29;5.33;;;3.90;;
18286;SDS011;9269;50.838;12.094;2023-04-25T09:38:58;3.80;;;3.50;;
18286;SDS011;9269;50.838;12.094;2023-04-25T09:41:31;4.20;;;3.80;;
18286;SDS011;9269;50.838;12.094;2023-04-25T09:44:01;4.30;;;3.90;;
18286;SDS011;9269;50.838;12.094;2023-04-25T09:46:34;5.00;;;3.90;;
18286;SDS011;9269;50.838;12.094;2023-04-25T09:49:06;5.20;;;4.23;;
18286;SDS011;9269;50.838;12.094;2023-04-25T09:51:35;7.17;;;4.17;;
18286;SDS011;9269;50.838;12.094;2023-04-25T09:54:03;4.70;;;4.20;;
18286;SDS011;9269;50.838;12.094;2023-04-25T09:56:32;5.27;;;4.50;;
18286;SDS011;9269;50.838;12.094;2023-04-25T09:59:04;4.10;;;3.80;;
18286;SDS011;9269;50.838;12.094;2023-04-25T10:01:36;4.60;;;4.20;;
18286;SDS011;9269;50.838;12.094;2023-04-25T10:04:07;6.27;;;4.90;;
18286;SDS011;9269;50.838;12.094;2023-04-25T10:06:40;5.13;;;4.43;;
18286;SDS011;9269;50.838;12.094;2023-04-25T10:09:11;5.43;;;4.90;;
18286;SDS011;9269;50.838;12.094;2023-04-25T10:11:40;4.50;;;4.10;;
18286;SDS011;9269;50.838;12.094;2023-04-25T10:14:09;4.80;;;4.30;;
18286;SDS011;9269;50.838;12.094;2023-04-25T10:16:39;6.27;;;4.80;;
18286;SDS011;9269;50.838;12.094;2023-04-25T10:19:09;6.00;;;5.00;;
18286;SDS011;9269;50.838;12.094;2023-04-25T10:21:39;5.73;;;5.20;;
18286;SDS011;9269;50.838;12.094;2023-04-25T10:24:13;6.13;;;5.37;;
18286;SDS011;9269;50.838;12.094;2023-04-25T10:26:42;6.80;;;5.00;;
18286;SDS011;9269;50.838;12.094;2023-04-25T10:29:15;5.73;;;5.23;;
18286;SDS011;9269;50.838;12.094;2023-04-25T10:31:52;5.60;;;5.03;;
18286;SDS011;9269;50.838;12.094;2023-04-25T10:34:23;6.60;;;5.90;;
18286;SDS011;9269;50.838;12.094;2023-04-25T10:37:05;4.90;;;4.50;;
18286;SDS011;9269;50.838;12.094;2023-04-25T10:39:37;6.53;;;5.03;;
18286;SDS011;9269;50.838;12.094;2023-04-25T10:42:07;6.47;;;5.07;;
18286;SDS011;9269;50.838;12.094;2023-04-25T10:44:36;6.97;;;4.87;;
18286;SDS011;9269;50.838;12.094;2023-04-25T10:47:07;5.10;;;4.60;;
18286;SDS011;9269;50.838;12.094;2023-04-25T10:49:37;4.90;;;4.50;;
18286;SDS011;9269;50.838;12.094;2023-04-25T10:52:10;4.20;;;3.83;;
18286;SDS011;9269;50.838;12.094;2023-04-25T10:54:41;4.20;;;3.70;;
18286;SDS011;9269;50.838;12.094;2023-04-25T11:00:08;4.47;;;3.40;;
18286;SDS011;9269;50.838;12.094;2023-04-25T11:02:43;3.90;;;3.50;;
18286;SDS011;9269;50.838;12.094;2023-04-25T11:05:20;4.00;;;3.60;;
18286;SDS011;9269;50.838;12.094;2023-04-25T11:07:54;4.07;;;3.67;;
18286;SDS011;9269;50.838;12.094;2023-04-25T11:10:27;4.23;;;3.23;;
18286;SDS011;9269;50.838;12.094;2023-04-25T11:12:56;3.93;;;3.63;;
18286;SDS011;9269;50.838;12.094;2023-04-25T11:15:27;4.37;;;3.23;;
18286;SDS011;9269;50.838;12.094;2023-04-25T11:17:57;4.37;;;3.30;;
18286;SDS011;9269;50.838;12.094;2023-04-25T11:20:25;5.70;;;3.23;;
18286;SDS011;9269;50.838;12.094;2023-04-25T11:22:57;4.13;;;3.20;;
18286;SDS011;9269;50.838;12.094;2023-04-25T11:25:28;3.57;;;3.10;;
18286;SDS011;9269;50.838;12.094;2023-04-25T11:28:00;3.70;;;3.17;;
18286;SDS011;9269;50.838;12.094;2023-04-25T11:30:29;3.83;;;3.13;;
18286;SDS011;9269;50.838;12.094;2023-04-25T11:33:01;5.03;;;3.03;;
18286;SDS011;9269;50.838;12.094;2023-04-25T11:35:30;4.43;;;2.77;;
18286;SDS011;9269;50.838;12.094;2023-04-25T11:38:00;3.60;;;2.60;;
18286;SDS011;9269;50.838;12.094;2023-04-25T11:40:30;5.47;;;3.00;;
18286;SDS011;9269;50.838;12.094;2023-04-25T11:42:59;5.23;;;2.50;;
18286;SDS011;9269;50.838;12.094;2023-04-25T11:45:28;3.50;;;2.83;;
18286;SDS011;9269;50.838;12.094;2023-04-25T11:47:57;4.43;;;2.87;;
18286;SDS011;9269;50.838;12.094;2023-04-25T11:50:29;5.87;;;2.80;;
18286;SDS011;9269;50.838;12.094;2023-04-25T11:52:57;4.97;;;3.20;;
18286;SDS011;9269;50.838;12.094;2023-04-25T11:55:25;5.67;;;3.37;;
18286;SDS011;9269;50.838;12.094;2023-04-25T11:57:54;4.97;;;3.20;;
18286;SDS011;9269;50.838;12.094;2023-04-25T12:00:23;4.67;;;2.73;;
18286;SDS011;9269;50.838;12.094;2023-04-25T12:02:52;4.90;;;2.80;;
18286;SDS011;9269;50.838;12.094;2023-04-25T12:05:23;6.00;;;3.30;;
18286;SDS011;9269;50.838;12.094;2023-04-25T12:10:50;5.93;;;3.23;;
18286;SDS011;9269;50.838;12.094;2023-04-25T12:13:19;5.23;;;2.77;;
18286;SDS011;9269;50.838;12.094;2023-04-25T12:15:48;4.83;;;2.77;;
18286;SDS011;9269;50.838;12.094;2023-04-25T12:18:18;5.37;;;2.67;;
18286;SDS011;9269;50.838;12.094;2023-04-25T12:20:49;6.90;;;2.97;;
18286;SDS011;9269;50.838;12.094;2023-04-25T12:23:17;6.87;;;3.03;;
18286;SDS011;9269;50.838;12.094;2023-04-25T12:25:55;8.30;;;2.97;;
18286;SDS011;9269;50.838;12.094;2023-04-25T12:28:24;5.13;;;2.87;;
18286;SDS011;9269;50.838;12.094;2023-04-25T12:30:55;5.50;;;2.87;;
18286;SDS011;9269;50.838;12.094;2023-04-25T12:33:27;5.10;;;2.90;;
18286;SDS011;9269;50.838;12.094;2023-04-25T12:35:57;5.40;;;2.60;;
18286;SDS011;9269;50.838;12.094;2023-04-25T12:38:29;6.97;;;2.80;;
18286;SDS011;9269;50.838;12.094;2023-04-25T12:41:01;4.93;;;3.07;;
18286;SDS011;9269;50.838;12.094;2023-04-25T12:43:29;5.03;;;2.80;;
18286;SDS011;9269;50.838;12.094;2023-04-25T12:45:58;4.87;;;2.70;;
18286;SDS011;9269;50.838;12.094;2023-04-25T12:48:26;5.33;;;2.40;;
18286;SDS011;9269;50.838;12.094;2023-04-25T12:50:55;5.03;;;2.63;;
18286;SDS011;9269;50.838;12.094;2023-04-25T12:53:23;4.60;;;2.63;;
18286;SDS011;9269;50.838;12.094;2023-04-25T12:55:53;5.47;;;2.67;;
18286;SDS011;9269;50.838;12.094;2023-04-25T12:58:26;4.17;;;2.60;;
18286;SDS011;9269;50.838;12.094;2023-04-25T13:00:54;6.60;;;2.50;;
18286;SDS011;9269;50.838;12.094;2023-04-25T13:03:23;4.13;;;2.67;;
18286;SDS011;9269;50.838;12.094;2023-04-25T13:05:52;3.57;;;2.57;;
18286;SDS011;9269;50.838;12.094;2023-04-25T13:08:20;5.00;;;2.67;;
18286;SDS011;9269;50.838;12.094;2023-04-25T13:10:49;6.43;;;2.67;;
18286;SDS011;9269;50.838;12.094;2023-04-25T13:13:19;4.33;;;2.63;;
18286;SDS011;9269;50.838;12.094;2023-04-25T13:15:47;4.30;;;2.70;;
18286;SDS011;9269;50.838;12.094;2023-04-25T13:18:16;5.53;;;2.60;;
18286;SDS011;9269;50.838;12.094;2023-04-25T13:20:44;5.53;;;2.97;;
18286;SDS011;9269;50.838;12.094;2023-04-25T13:23:12;6.50;;;2.97;;
18286;SDS011;9269;50.838;12.094;2023-04-25T13:25:41;5.53;;;3.47;;
18286;SDS011;9269;50.838;12.094;2023-04-25T13:28:09;7.67;;;3.00;;
18286;SDS011;9269;50.838;12.094;2023-04-25T13:30:39;7.60;;;3.17;;
18286;SDS011;9269;50.838;12.094;2023-04-25T13:33:07;6.17;;;3.37;;
18286;SDS011;9269;50.838;12.094;2023-04-25T13:35:37;7.97;;;2.90;;
18286;SDS011;9269;50.838;12.094;2023-04-25T13:38:06;5.70;;;3.10;;
18286;SDS011;9269;50.838;12.094;2023-04-25T13:40:35;4.27;;;2.90;;
18286;SDS011;9269;50.838;12.094;2023-04-25T13:43:04;8.07;;;2.87;;
18286;SDS011;9269;50.838;12.094;2023-04-25T13:45:34;8.93;;;2.73;;
18286;SDS011;9269;50.838;12.094;2023-04-25T13:48:05;5.40;;;2.60;;
18286;SDS011;9269;50.838;12.094;2023-04-25T13:50:33;3.77;;;2.50;;
18286;SDS011;9269;50.838;12.094;2023-04-25T13:53:02;5.20;;;2.50;;
18286;SDS011;9269;50.838;12.094;2023-04-25T13:55:31;5.33;;;2.50;;
18286;SDS011;9269;50.838;12.094;2023-04-25T13:58:00;5.13;;;2.50;;
18286;SDS011;9269;50.838;12.094;2023-04-25T14:00:35;4.77;;;2.67;;
18286;SDS011;9269;50.838;12.094;2023-04-25T14:03:07;4.10;;;2.33;;
18286;SDS011;9269;50.838;12.094;2023-04-25T14:05:37;3.13;;;2.10;;
18286;SDS011;9269;50.838;12.094;2023-04-25T14:08:06;4.30;;;2.10;;
18286;SDS011;9269;50.838;12.094;2023-04-25T14:10:35;5.87;;;2.53;;
18286;SDS011;9269;50.838;12.094;2023-04-25T14:13:07;5.63;;;2.50;;
18286;SDS011;9269;50.838;12.094;2023-04-25T14:15:36;5.03;;;2.50;;
18286;SDS011;9269;50.838;12.094;2023-04-25T14:18:05;6.53;;;2.50;;
18286;SDS011;9269;50.838;12.094;2023-04-25T14:20:35;6.10;;;2.80;;
18286;SDS011;9269;50.838;12.094;2023-04-25T14:23:04;5.47;;;2.50;;
18286;SDS011;9269;50.838;12.094;2023-04-25T14:25:34;4.17;;;2.80;;
18286;SDS011;9269;50.838;12.094;2023-04-25T14:28:03;4.77;;;2.30;;
18286;SDS011;9269;50.838;12.094;2023-04-25T14:30:31;4.47;;;3.17;;
18286;SDS011;9269;50.838;12.094;2023-04-25T14:33:01;4.83;;;2.57;;
18286;SDS011;9269;50.838;12.094;2023-04-25T14:35:30;4.10;;;2.60;;
18286;SDS011;9269;50.838;12.094;2023-04-25T14:38:00;5.60;;;3.13;;
18286;SDS011;9269;50.838;12.094;2023-04-25T14:40:30;5.30;;;3.07;;
18286;SDS011;9269;50.838;12.094;2023-04-25T14:42:59;5.57;;;2.53;;
18286;SDS011;9269;50.838;12.094;2023-04-25T14:45:28;5.30;;;3.07;;
18286;SDS011;9269;50.838;12.094;2023-04-25T14:47:56;5.63;;;2.97;;
18286;SDS011;9269;50.838;12.094;2023-04-25T14:50:25;6.07;;;2.57;;
18286;SDS011;9269;50.838;12.094;2023-04-25T14:52:53;5.73;;;3.00;;
18286;SDS011;9269;50.838;12.094;2023-04-25T14:55:27;3.70;;;2.43;;
18286;SDS011;9269;50.838;12.094;2023-04-25T14:57:57;6.43;;;2.60;;
18286;SDS011;9269;50.838;12.094;2023-04-25T15:00:27;4.23;;;2.30;;
18286;SDS011;9269;50.838;12.094;2023-04-25T15:02:57;5.53;;;2.40;;
18286;SDS011;9269;50.838;12.094;2023-04-25T15:05:26;5.37;;;2.40;;
18286;SDS011;9269;50.838;12.094;2023-04-25T15:07:55;7.07;;;2.63;;